Time;durP1;ratioP1;P1;durP2;ratioP2;P2;SDS_P1;SDS_P2;PMS_P1;PMS_P2;Temp;Humidity;BMP_temperature;BMP_pressure;BME280_temperature;BME280_humidity;BME280_pressure;Samples;Min_cycle;Max_cycle;Signal;HPM_P1;HPM_P2
2021/12/28 00:00:09;;;;;;;78.85;41.38;;;;;;;-5.41;100.00;98517.44;2079272;28;20225;-75
2021/12/28 00:01:16;;;;;;;81.32;39.97;;;;;;;-5.41;100.00;98520.84;2087204;28;20272;-75
2021/12/28 00:02:17;;;;;;;84.72;41.40;;;;;;;-5.37;100.00;98520.47;2088372;28;20272;-75
2021/12/28 00:03:19;;;;;;;83.17;42.67;;;;;;;-5.39;100.00;98518.03;2088181;28;20223;-74
2021/12/28 00:04:21;;;;;;;80.50;41.20;;;;;;;-5.40;100.00;98521.66;2088341;28;20229;-75
2021/12/28 00:05:24;;;;;;;75.78;40.80;;;;;;;-5.35;100.00;98514.03;2087049;28;20214;-75
2021/12/28 00:06:25;;;;;;;80.88;41.50;;;;;;;-5.37;100.00;98526.44;2087472;28;20247;-75
2021/12/28 00:07:29;;;;;;;81.10;41.77;;;;;;;-5.41;100.00;98504.47;2087319;28;20249;-74
2021/12/28 00:08:32;;;;;;;77.53;41.45;;;;;;;-5.40;100.00;98519.84;2079473;28;20729;-75
2021/12/28 00:09:34;;;;;;;82.18;41.72;;;;;;;-5.39;100.00;98512.84;2087603;28;20222;-75
2021/12/28 00:10:35;;;;;;;82.47;40.50;;;;;;;-5.36;100.00;98515.03;2088120;28;20609;-75
2021/12/28 00:11:36;;;;;;;80.70;41.40;;;;;;;-5.36;100.00;98511.66;2087293;28;20231;-75
2021/12/28 00:12:38;;;;;;;84.32;42.33;;;;;;;-5.24;100.00;98512.59;2078656;28;20595;-74
2021/12/28 00:13:42;;;;;;;84.22;41.20;;;;;;;-5.27;100.00;98511.19;2079279;28;20227;-74
2021/12/28 00:15:00;;;;;;;82.05;40.92;;;;;;;-5.32;100.00;98518.81;2087281;28;20229;-74
2021/12/28 00:16:24;;;;;;;81.05;41.65;;;;;;;-5.32;100.00;98515.41;2086964;28;20230;-75
2021/12/28 00:18:45;;;;;;;77.88;39.38;;;;;;;-5.38;100.00;98517.06;2087896;28;20588;-75
2021/12/28 00:19:47;;;;;;;79.40;41.42;;;;;;;-5.37;100.00;98512.66;2088172;28;20219;-74
2021/12/28 00:20:52;;;;;;;89.82;42.25;;;;;;;-5.17;100.00;98508.94;2087365;28;20252;-75
2021/12/28 00:21:54;;;;;;;87.82;42.35;;;;;;;-5.14;100.00;98511.13;2086950;28;20273;-75
2021/12/28 00:22:56;;;;;;;77.63;40.65;;;;;;;-5.07;100.00;98513.69;2087161;28;20226;-75
2021/12/28 00:23:59;;;;;;;78.00;40.50;;;;;;;-5.15;100.00;98514.72;2087541;28;20709;-75
2021/12/28 00:25:01;;;;;;;78.65;40.50;;;;;;;-5.19;100.00;98518.75;2087315;28;20219;-75
2021/12/28 00:26:03;;;;;;;83.78;39.92;;;;;;;-5.08;100.00;98524.31;2088111;28;20219;-75
2021/12/28 00:27:05;;;;;;;79.53;40.45;;;;;;;-5.00;100.00;98516.25;2088083;28;20234;-75
2021/12/28 00:28:06;;;;;;;80.90;42.33;;;;;;;-5.01;100.00;98509.47;2087202;28;20228;-74
2021/12/28 00:29:08;;;;;;;77.20;41.07;;;;;;;-4.97;100.00;98518.44;2087061;28;20246;-75
2021/12/28 00:30:10;;;;;;;81.88;40.90;;;;;;;-5.02;100.00;98513.09;2087130;28;20603;-75
2021/12/28 00:31:14;;;;;;;70.38;39.15;;;;;;;-5.11;100.00;98512.53;2087140;28;20309;-75
2021/12/28 00:32:15;;;;;;;68.90;38.15;;;;;;;-5.15;100.00;98513.94;2087254;28;20219;-75
2021/12/28 00:33:18;;;;;;;78.30;40.80;;;;;;;-5.19;100.00;98516.16;2079223;28;20219;-75
2021/12/28 00:34:19;;;;;;;84.30;41.50;;;;;;;-5.16;100.00;98514.94;2087369;28;20230;-75
2021/12/28 00:35:26;;;;;;;80.07;40.83;;;;;;;-4.95;100.00;98508.59;2087206;28;20222;-75
2021/12/28 00:36:29;;;;;;;81.50;40.05;;;;;;;-4.98;100.00;98506.44;2086922;28;20230;-75
2021/12/28 00:37:31;;;;;;;72.78;41.20;;;;;;;-4.98;100.00;98509.84;2087997;28;20246;-75
2021/12/28 00:38:33;;;;;;;74.37;39.30;;;;;;;-5.04;100.00;98507.28;2087166;28;20719;-75
2021/12/28 00:39:33;;;;;;;79.05;39.75;;;;;;;-5.13;100.00;98512.72;2087395;28;20253;-75
2021/12/28 00:40:36;;;;;;;76.50;39.53;;;;;;;-5.17;100.00;98516.75;2088031;28;20219;-75
2021/12/28 00:41:38;;;;;;;83.43;42.05;;;;;;;-5.19;100.00;98508.38;2086650;28;20681;-75
2021/12/28 00:42:40;;;;;;;82.33;41.03;;;;;;;-5.14;100.00;98508.53;2086871;28;20604;-75
2021/12/28 00:43:42;;;;;;;72.95;39.28;;;;;;;-5.11;100.00;98504.72;2087061;28;20305;-75
2021/12/28 00:44:43;;;;;;;76.10;38.47;;;;;;;-4.95;100.00;98499.03;2078957;28;20223;-75
2021/12/28 00:45:45;;;;;;;72.43;38.47;;;;;;;-4.99;100.00;98500.44;2087210;28;20752;-75
2021/12/28 00:46:45;;;;;;;73.25;39.53;;;;;;;-4.97;100.00;98505.44;2087387;28;20215;-75
2021/12/28 00:47:47;;;;;;;68.93;38.07;;;;;;;-4.97;100.00;98505.44;2079038;28;20307;-75
2021/12/28 00:48:50;;;;;;;80.10;41.38;;;;;;;-5.04;100.00;98504.66;2079202;28;20229;-75
2021/12/28 00:49:52;;;;;;;76.45;39.28;;;;;;;-4.98;100.00;98504.63;2087167;28;20713;-75
2021/12/28 00:50:56;;;;;;;75.47;40.15;;;;;;;-5.02;100.00;98500.88;2087419;28;20234;-75
2021/12/28 00:51:56;;;;;;;76.03;38.42;;;;;;;-5.00;100.00;98498.06;2086861;28;20238;-75
2021/12/28 00:52:58;;;;;;;75.57;39.83;;;;;;;-4.95;100.00;98509.44;2078791;28;20309;-75
2021/12/28 00:53:59;;;;;;;73.00;39.58;;;;;;;-5.03;100.00;98504.47;2087081;28;20277;-75
2021/12/28 00:55:00;;;;;;;72.90;41.07;;;;;;;-5.11;100.00;98504.72;2087177;28;20289;-75
2021/12/28 00:56:05;;;;;;;69.75;39.00;;;;;;;-5.16;100.00;98507.94;2078827;28;20215;-74
2021/12/28 00:57:10;;;;;;;80.43;39.28;;;;;;;-5.18;100.00;98509.94;2086967;28;20685;-74
2021/12/28 00:58:12;;;;;;;78.65;39.47;;;;;;;-5.18;100.00;98516.97;2087221;28;22290;-74
2021/12/28 00:59:13;;;;;;;77.53;42.30;;;;;;;-5.18;100.00;98517.75;2079134;28;20234;-75
2021/12/28 01:00:18;;;;;;;74.07;39.37;;;;;;;-5.13;100.00;98512.72;2087114;28;20225;-75
2021/12/28 01:01:19;;;;;;;72.57;39.75;;;;;;;-5.08;100.00;98519.09;2087800;28;20246;-75
2021/12/28 01:02:20;;;;;;;78.72;41.03;;;;;;;-5.10;100.00;98523.72;2087148;28;20219;-75
2021/12/28 01:03:23;;;;;;;73.90;40.03;;;;;;;-5.16;100.00;98520.94;2087087;28;20242;-74
2021/12/28 01:04:24;;;;;;;78.10;39.90;;;;;;;-5.10;100.00;98515.91;2087191;28;20223;-75
2021/12/28 01:05:26;;;;;;;77.78;39.35;;;;;;;-5.12;100.00;98508.34;2087939;28;20332;-74
2021/12/28 01:06:29;;;;;;;70.75;39.42;;;;;;;-5.15;100.00;98509.53;2086745;28;20713;-75
2021/12/28 01:07:30;;;;;;;75.43;38.65;;;;;;;-5.14;100.00;98516.31;2078759;28;20709;-75
2021/12/28 01:08:31;;;;;;;79.90;41.33;;;;;;;-5.15;100.00;98517.31;2078356;28;20226;-75
2021/12/28 01:09:33;;;;;;;71.87;40.93;;;;;;;-5.16;100.00;98510.53;2078922;28;20320;-75
2021/12/28 01:10:39;;;;;;;77.97;38.78;;;;;;;-5.02;100.00;98513.09;2087012;28;20586;-75
2021/12/28 01:11:42;;;;;;;79.25;41.33;;;;;;;-4.98;100.00;98516.84;2086089;28;20223;-75
2021/12/28 01:12:43;;;;;;;74.40;38.65;;;;;;;-5.03;100.00;98516.69;2078736;28;20223;-75
2021/12/28 01:13:45;;;;;;;82.55;40.83;;;;;;;-5.00;100.00;98516.25;2086872;28;20239;-75
2021/12/28 01:14:45;;;;;;;74.60;38.70;;;;;;;-5.00;100.00;98522.25;2087610;28;20700;-75
2021/12/28 01:15:48;;;;;;;77.77;39.43;;;;;;;-5.05;100.00;98519.47;2087728;28;20636;-75
2021/12/28 01:16:49;;;;;;;66.93;38.40;;;;;;;-5.03;100.00;98517.50;2086845;28;20292;-75
2021/12/28 01:17:53;;;;;;;77.47;42.73;;;;;;;-5.06;100.00;98517.88;2078553;28;20251;-75
2021/12/28 01:18:54;;;;;;;75.68;41.00;;;;;;;-5.10;100.00;98516.72;2086394;28;20288;-75
2021/12/28 01:19:56;;;;;;;77.43;40.00;;;;;;;-5.10;100.00;98515.91;2087537;28;20222;-75
2021/12/28 01:20:57;;;;;;;74.28;40.13;;;;;;;-5.10;100.00;98510.72;2086706;28;20230;-75
2021/12/28 01:22:01;;;;;;;83.43;41.60;;;;;;;-5.11;100.00;98515.13;2086674;28;20234;-75
2021/12/28 01:23:03;;;;;;;79.78;41.95;;;;;;;-5.07;100.00;98507.69;2086990;28;20268;-75
2021/12/28 01:24:05;;;;;;;79.15;40.15;;;;;;;-5.05;100.00;98509.06;2087724;28;20235;-75
2021/12/28 01:25:10;;;;;;;73.65;40.63;;;;;;;-4.98;100.00;98507.22;2086870;28;20215;-75
2021/12/28 01:26:12;;;;;;;84.68;42.40;;;;;;;-5.01;100.00;98515.47;2086404;28;20310;-75
2021/12/28 01:27:13;;;;;;;75.28;39.92;;;;;;;-5.04;100.00;98513.25;2086711;28;20229;-75
2021/12/28 01:28:15;;;;;;;79.33;42.43;;;;;;;-5.05;100.00;98518.69;2078686;28;20250;-75
2021/12/28 01:29:16;;;;;;;85.28;41.97;;;;;;;-5.04;100.00;98505.47;2086948;28;20223;-75
2021/12/28 01:30:19;;;;;;;74.55;40.00;;;;;;;-5.08;100.00;98503.50;2086641;28;20222;-75
2021/12/28 01:31:21;;;;;;;80.72;40.63;;;;;;;-5.07;100.00;98500.69;2087124;28;20359;-75
2021/12/28 01:32:24;;;;;;;79.43;41.58;;;;;;;-5.01;100.00;98505.06;2094409;28;20226;-75
2021/12/28 01:33:25;;;;;;;81.63;40.97;;;;;;;-5.05;100.00;98508.28;2086633;28;20230;-75
2021/12/28 01:34:27;;;;;;;77.90;41.27;;;;;;;-5.09;100.00;98505.31;2078432;28;20234;-75
2021/12/28 01:35:28;;;;;;;78.20;42.53;;;;;;;-5.05;100.00;98505.69;2086788;28;20289;-75
2021/12/28 01:36:29;;;;;;;77.95;40.22;;;;;;;-4.89;100.00;98498.16;2087376;28;20677;-75
2021/12/28 01:37:31;;;;;;;80.28;40.17;;;;;;;-4.97;100.00;98490.63;2087457;28;20241;-75
2021/12/28 01:38:36;;;;;;;71.97;39.47;;;;;;;-4.96;100.00;98488.81;2086605;28;20644;-75
2021/12/28 01:39:40;;;;;;;72.55;41.47;;;;;;;-5.01;100.00;98488.66;2086728;28;20249;-75
2021/12/28 01:40:43;;;;;;;78.55;41.10;;;;;;;-5.06;100.00;98488.47;2094596;28;20300;-75
2021/12/28 01:41:43;;;;;;;80.72;40.88;;;;;;;-5.00;100.00;98485.06;2087404;28;20240;-75
2021/12/28 01:42:55;;;;;;;77.47;41.13;;;;;;;-4.87;100.00;98487.56;2086557;28;20238;-75
2021/12/28 01:43:57;;;;;;;79.68;42.38;;;;;;;-4.95;100.00;98480.00;2079185;28;20254;-75
2021/12/28 01:45:02;;;;;;;80.00;42.95;;;;;;;-5.01;100.00;98476.44;2086870;28;20241;-75
2021/12/28 01:46:05;;;;;;;77.55;39.85;;;;;;;-4.96;100.00;98475.81;2087665;28;20237;-74
2021/12/28 01:47:06;;;;;;;80.35;41.35;;;;;;;-5.01;100.00;98467.84;2087589;28;20223;-75
2021/12/28 01:48:09;;;;;;;78.50;40.92;;;;;;;-4.96;100.00;98468.81;2087060;28;20230;-74
2021/12/28 01:49:11;;;;;;;83.95;42.28;;;;;;;-4.97;100.00;98469.81;2086618;28;20233;-75
2021/12/28 01:50:12;;;;;;;83.72;43.38;;;;;;;-5.01;100.00;98471.25;2086863;28;20824;-74
2021/12/28 01:51:17;;;;;;;74.47;40.97;;;;;;;-4.93;100.00;98467.59;2087417;28;20676;-75
2021/12/28 01:52:19;;;;;;;71.93;39.47;;;;;;;-4.89;100.00;98471.38;2087535;28;20655;-75
2021/12/28 01:53:24;;;;;;;83.03;43.38;;;;;;;-4.95;100.00;98467.81;2087516;28;20218;-75
2021/12/28 01:54:24;;;;;;;79.53;40.58;;;;;;;-5.00;100.00;98469.44;2087031;28;20578;-75
2021/12/28 01:55:27;;;;;;;83.83;40.80;;;;;;;-5.04;100.00;98465.66;2086157;28;20230;-75
2021/12/28 01:56:31;;;;;;;76.57;40.20;;;;;;;-5.07;100.00;98469.47;2078418;28;20227;-74
2021/12/28 01:57:33;;;;;;;75.43;39.80;;;;;;;-5.08;100.00;98467.88;2079067;28;20239;-75
2021/12/28 01:58:34;;;;;;;78.88;42.05;;;;;;;-5.07;100.00;98469.47;2086651;28;20305;-75
2021/12/28 01:59:37;;;;;;;83.63;41.40;;;;;;;-5.09;100.00;98461.09;2086699;28;20225;-75
2021/12/28 02:00:42;;;;;;;79.10;41.28;;;;;;;-5.06;100.00;98465.06;2078217;28;20219;-75
2021/12/28 02:01:44;;;;;;;74.40;41.03;;;;;;;-5.06;100.00;98460.66;2086983;28;20233;-75
2021/12/28 02:02:45;;;;;;;78.45;40.58;;;;;;;-5.01;100.00;98457.44;2086562;28;20218;-75
2021/12/28 02:03:47;;;;;;;83.37;42.00;;;;;;;-4.95;100.00;98462.63;2078301;28;20238;-75
2021/12/28 02:04:50;;;;;;;72.85;39.53;;;;;;;-4.99;100.00;98447.63;2086358;28;20219;-75
2021/12/28 02:05:52;;;;;;;77.65;39.83;;;;;;;-4.96;100.00;98452.41;2087161;28;20231;-75
2021/12/28 02:06:55;;;;;;;76.88;40.88;;;;;;;-4.96;100.00;98457.59;2086659;28;20589;-75
2021/12/28 02:07:56;;;;;;;72.00;37.97;;;;;;;-4.99;100.00;98448.41;2087433;28;20227;-75
2021/12/28 02:08:58;;;;;;;76.78;40.20;;;;;;;-4.90;100.00;98449.75;2087344;28;20234;-75
2021/12/28 02:10:00;;;;;;;76.40;41.45;;;;;;;-4.87;100.00;98443.31;2087265;28;20257;-74
2021/12/28 02:11:01;;;;;;;81.60;40.20;;;;;;;-4.90;100.00;98444.56;2086389;28;20230;-74
2021/12/28 02:12:03;;;;;;;71.03;39.85;;;;;;;-4.93;100.00;98439.78;2078292;28;20713;-75
2021/12/28 02:13:07;;;;;;;75.25;39.85;;;;;;;-4.98;100.00;98441.41;2086563;28;20283;-75
2021/12/28 02:14:10;;;;;;;77.30;39.80;;;;;;;-5.04;100.00;98440.44;2085767;28;20288;-75
2021/12/28 02:15:14;;;;;;;78.20;41.40;;;;;;;-4.97;100.00;98443.00;2086416;28;20314;-75
2021/12/28 02:16:16;;;;;;;73.90;40.08;;;;;;;-4.99;100.00;98451.03;2086538;28;20234;-75
2021/12/28 02:17:16;;;;;;;74.97;39.85;;;;;;;-4.97;100.00;98448.22;2087255;28;20223;-75
2021/12/28 02:18:19;;;;;;;75.83;41.53;;;;;;;-4.98;100.00;98447.41;2087162;28;20223;-74
2021/12/28 02:19:20;;;;;;;76.70;41.00;;;;;;;-4.91;100.00;98445.56;2087148;28;20223;-75
2021/12/28 02:20:25;;;;;;;76.40;40.93;;;;;;;-5.00;100.00;98449.44;2086345;28;20238;-75
2021/12/28 02:21:26;;;;;;;73.38;40.95;;;;;;;-4.96;100.00;98450.59;2078592;28;20223;-75
2021/12/28 02:22:28;;;;;;;72.82;40.45;;;;;;;-4.92;100.00;98443.19;2086420;28;20655;-75
2021/12/28 02:23:29;;;;;;;73.47;40.35;;;;;;;-4.94;100.00;98446.00;2086302;28;20227;-75
2021/12/28 02:24:30;;;;;;;77.50;40.07;;;;;;;-4.97;100.00;98453.41;2087232;28;20298;-75
2021/12/28 02:25:31;;;;;;;82.03;42.88;;;;;;;-4.97;100.00;98456.00;2087110;28;20700;-75
2021/12/28 02:26:33;;;;;;;70.72;39.88;;;;;;;-4.89;100.00;98450.56;2087208;28;20584;-75
2021/12/28 02:27:35;;;;;;;73.03;39.80;;;;;;;-4.70;100.00;98454.81;2087210;28;20705;-75
2021/12/28 02:28:39;;;;;;;73.47;38.88;;;;;;;-4.58;100.00;98447.13;2087086;28;20222;-74
2021/12/28 02:29:41;;;;;;;71.82;39.58;;;;;;;-4.73;100.00;98439.63;2085863;28;20222;-75
2021/12/28 02:30:44;;;;;;;68.87;38.60;;;;;;;-4.80;100.00;98451.09;2086461;28;20233;-75
2021/12/28 02:31:46;;;;;;;69.35;40.35;;;;;;;-4.80;100.00;98445.88;2086976;28;20218;-75
2021/12/28 02:32:49;;;;;;;77.65;40.42;;;;;;;-4.88;100.00;98445.13;2086518;28;20750;-74
2021/12/28 02:33:51;;;;;;;67.45;37.30;;;;;;;-4.91;100.00;98452.56;2086344;28;20218;-75
2021/12/28 02:34:53;;;;;;;70.70;38.92;;;;;;;-4.96;100.00;98458.41;2086436;28;20300;-75
2021/12/28 02:36:00;;;;;;;75.68;40.15;;;;;;;-4.89;100.00;98450.56;2087197;28;20234;-75
2021/12/28 02:37:00;;;;;;;71.70;39.70;;;;;;;-4.87;100.00;98451.94;2086158;28;20222;-75
2021/12/28 02:38:03;;;;;;;75.03;40.30;;;;;;;-4.93;100.00;98449.41;2086438;28;20254;-75
2021/12/28 02:39:03;;;;;;;71.55;38.47;;;;;;;-4.90;100.00;98446.38;2086255;28;20218;-75
2021/12/28 02:40:08;;;;;;;77.83;40.43;;;;;;;-4.89;100.00;98447.94;2078059;28;20749;-75
2021/12/28 02:41:11;;;;;;;74.18;39.65;;;;;;;-4.87;100.00;98453.72;2085957;28;20218;-75
2021/12/28 02:42:12;;;;;;;76.22;40.03;;;;;;;-4.68;100.00;98450.22;2087006;28;20242;-74
2021/12/28 02:43:16;;;;;;;72.15;41.53;;;;;;;-4.50;100.00;98453.88;2087106;28;20226;-74
2021/12/28 02:44:17;;;;;;;72.97;39.42;;;;;;;-4.65;100.00;98448.97;2086347;28;20703;-75
2021/12/28 02:45:21;;;;;;;79.57;41.47;;;;;;;-4.72;100.00;98456.03;2086185;28;20697;-74
2021/12/28 02:46:22;;;;;;;76.65;41.40;;;;;;;-4.77;100.00;98451.47;2086054;28;20230;-75
2021/12/28 02:47:23;;;;;;;76.05;40.92;;;;;;;-4.81;100.00;98452.91;2087086;28;20222;-75
2021/12/28 02:48:27;;;;;;;79.77;42.03;;;;;;;-4.80;100.00;98454.47;2086013;28;20222;-75
2021/12/28 02:49:28;;;;;;;83.00;43.53;;;;;;;-4.75;100.00;98449.47;2086313;28;20272;-75
2021/12/28 02:50:32;;;;;;;87.67;42.63;;;;;;;-4.67;100.00;98441.38;2086423;28;20738;-74
2021/12/28 02:51:34;;;;;;;88.05;43.38;;;;;;;-4.57;100.00;98436.50;2086322;28;20220;-75
2021/12/28 02:52:36;;;;;;;88.57;44.03;;;;;;;-4.61;100.00;98440.50;2087028;28;20321;-74
2021/12/28 02:53:37;;;;;;;82.03;42.53;;;;;;;-4.64;100.00;98435.75;2085735;28;20256;-75
2021/12/28 02:54:40;;;;;;;85.07;45.30;;;;;;;-4.74;100.00;98434.63;2078210;28;20220;-74
2021/12/28 02:55:44;;;;;;;82.32;42.97;;;;;;;-4.77;100.00;98432.47;2086663;28;20337;-75
2021/12/28 02:56:46;;;;;;;87.00;43.88;;;;;;;-4.81;100.00;98439.88;2086085;28;20238;-75
2021/12/28 02:57:49;;;;;;;89.03;44.42;;;;;;;-4.76;100.00;98429.66;2086363;28;20280;-75
2021/12/28 02:58:53;;;;;;;88.85;46.88;;;;;;;-4.75;100.00;98423.44;2086991;28;20589;-74
2021/12/28 02:59:54;;;;;;;83.50;44.85;;;;;;;-4.77;100.00;98425.47;2086594;28;20227;-75
2021/12/28 03:01:00;;;;;;;91.10;45.37;;;;;;;-4.80;100.00;98427.69;2087047;28;20305;-75
2021/12/28 03:02:01;;;;;;;85.78;44.05;;;;;;;-4.87;100.00;98419.91;2087091;28;20226;-75
2021/12/28 03:03:07;;;;;;;86.67;44.40;;;;;;;-4.88;100.00;98423.53;2086961;28;20223;-74
2021/12/28 03:04:08;;;;;;;85.47;44.25;;;;;;;-4.95;100.00;98418.41;2086580;28;20272;-75
2021/12/28 03:05:10;;;;;;;83.80;44.00;;;;;;;-4.90;100.00;98415.94;2086214;28;20275;-75
2021/12/28 03:06:15;;;;;;;87.38;43.75;;;;;;;-4.92;100.00;98419.78;2078007;28;20728;-74
2021/12/28 03:07:17;;;;;;;93.28;44.38;;;;;;;-4.92;100.00;98417.16;2086703;28;20226;-75
2021/12/28 03:08:21;;;;;;;83.70;42.92;;;;;;;-4.81;100.00;98424.28;2086082;28;20253;-75
2021/12/28 03:09:23;;;;;;;95.47;44.30;;;;;;;-4.83;100.00;98418.50;2086290;28;20210;-74
2021/12/28 03:10:24;;;;;;;81.93;43.22;;;;;;;-4.79;100.00;98424.84;2085723;28;20222;-74
2021/12/28 03:11:30;;;;;;;89.15;42.05;;;;;;;-4.61;100.00;98422.28;2077668;28;20223;-74
2021/12/28 03:12:31;;;;;;;86.10;44.88;;;;;;;-4.67;100.00;98419.78;2086349;28;20219;-74
2021/12/28 03:13:36;;;;;;;82.63;44.17;;;;;;;-4.77;100.00;98420.25;2087142;28;20691;-75
2021/12/28 03:14:37;;;;;;;91.20;45.45;;;;;;;-4.81;100.00;98426.09;2085843;28;20222;-75
2021/12/28 03:15:38;;;;;;;88.83;43.03;;;;;;;-4.82;100.00;98425.28;2086207;28;20252;-75
2021/12/28 03:16:41;;;;;;;88.75;44.28;;;;;;;-4.73;100.00;98429.22;2086833;28;20231;-75
2021/12/28 03:17:44;;;;;;;86.88;43.15;;;;;;;-4.79;100.00;98417.06;2086872;28;20237;-74
2021/12/28 03:18:46;;;;;;;87.90;43.83;;;;;;;-4.80;100.00;98419.88;2086415;28;20229;-75
2021/12/28 03:19:47;;;;;;;86.22;43.70;;;;;;;-4.86;100.00;98416.34;2086268;28;20215;-74
2021/12/28 03:20:49;;;;;;;79.47;41.80;;;;;;;-4.85;100.00;98418.72;2086550;28;20221;-75
2021/12/28 03:21:50;;;;;;;86.38;43.47;;;;;;;-4.87;100.00;98417.31;2086251;28;20235;-75
2021/12/28 03:22:53;;;;;;;82.38;43.38;;;;;;;-4.80;100.00;98415.47;2086014;28;20218;-74
2021/12/28 03:23:55;;;;;;;83.57;43.03;;;;;;;-4.82;100.00;98417.47;2077374;28;20227;-75
2021/12/28 03:24:57;;;;;;;85.38;43.72;;;;;;;-4.85;100.00;98420.53;2086088;28;20673;-74
2021/12/28 03:25:58;;;;;;;85.78;44.88;;;;;;;-4.90;100.00;98421.16;2086174;28;20230;-75
2021/12/28 03:26:59;;;;;;;82.63;44.43;;;;;;;-4.92;100.00;98414.56;2086138;28;20226;-75
2021/12/28 03:28:01;;;;;;;84.97;44.33;;;;;;;-4.89;100.00;98414.13;2086129;28;20285;-75
2021/12/28 03:29:03;;;;;;;86.25;42.80;;;;;;;-4.78;100.00;98413.44;2086198;28;20234;-75
2021/12/28 03:30:06;;;;;;;84.70;43.20;;;;;;;-4.71;100.00;98411.59;2086288;28;20325;-75
2021/12/28 03:31:11;;;;;;;84.43;44.85;;;;;;;-4.72;100.00;98415.19;2085835;28;20222;-75
2021/12/28 03:32:11;;;;;;;92.45;45.53;;;;;;;-4.78;100.00;98412.63;2086176;28;20816;-75
2021/12/28 03:33:14;;;;;;;86.23;44.37;;;;;;;-4.81;100.00;98416.47;2086886;28;20639;-75
2021/12/28 03:34:14;;;;;;;88.50;44.78;;;;;;;-4.84;100.00;98412.50;2086138;28;20219;-75
2021/12/28 03:35:18;;;;;;;87.17;43.07;;;;;;;-4.84;100.00;98411.72;2087587;28;20268;-75
2021/12/28 03:36:22;;;;;;;85.97;44.25;;;;;;;-4.86;100.00;98408.53;2087319;28;20261;-75
2021/12/28 03:37:24;;;;;;;82.53;43.90;;;;;;;-4.91;100.00;98405.75;2079224;28;20291;-75
2021/12/28 03:38:26;;;;;;;79.22;41.22;;;;;;;-4.92;100.00;98415.38;2079464;28;20243;-74
2021/12/28 03:39:28;;;;;;;67.05;39.15;;;;;;;-4.97;100.00;98412.59;2087753;28;20238;-75
2021/12/28 03:40:28;;;;;;;73.65;40.65;;;;;;;-4.98;100.00;98410.19;2088390;28;20226;-75
2021/12/28 03:41:31;;;;;;;68.70;40.20;;;;;;;-4.96;100.00;98408.19;2087811;28;20234;-75
2021/12/28 03:42:32;;;;;;;70.72;40.22;;;;;;;-4.77;100.00;98409.84;2087435;28;20325;-75
2021/12/28 03:43:39;;;;;;;76.65;41.42;;;;;;;-4.70;100.00;98407.97;2088335;28;20313;-75
2021/12/28 03:44:42;;;;;;;67.85;39.78;;;;;;;-4.74;100.00;98404.22;2087142;28;20260;-75
2021/12/28 03:45:44;;;;;;;66.40;38.83;;;;;;;-4.81;100.00;98406.06;2087778;28;20256;-75
2021/12/28 03:46:45;;;;;;;75.07;40.78;;;;;;;-4.87;100.00;98402.50;2087501;28;20223;-74
2021/12/28 03:47:46;;;;;;;71.78;40.17;;;;;;;-4.89;100.00;98404.53;2087738;28;20265;-75
2021/12/28 03:48:48;;;;;;;72.40;40.70;;;;;;;-4.85;100.00;98402.31;2087582;28;20704;-75
2021/12/28 03:49:49;;;;;;;68.50;39.08;;;;;;;-4.90;100.00;98400.34;2087719;28;20230;-75
2021/12/28 03:50:53;;;;;;;65.78;39.35;;;;;;;-4.92;100.00;98404.16;2087564;28;20246;-75
2021/12/28 03:51:55;;;;;;;67.97;37.95;;;;;;;-4.95;100.00;98405.41;2087434;28;20231;-75
2021/12/28 03:52:57;;;;;;;70.67;40.07;;;;;;;-4.99;100.00;98403.41;2088328;28;20232;-75
2021/12/28 03:53:59;;;;;;;68.38;39.75;;;;;;;-4.99;100.00;98403.41;2088406;28;20211;-75
2021/12/28 03:55:01;;;;;;;71.72;40.90;;;;;;;-4.98;100.00;98416.19;2088214;28;20223;-75
2021/12/28 03:56:03;;;;;;;71.30;40.90;;;;;;;-4.98;100.00;98405.00;2087676;28;20288;-75
2021/12/28 03:57:08;;;;;;;71.68;37.92;;;;;;;-4.97;100.00;98412.59;2087469;28;20297;-75
2021/12/28 03:58:09;;;;;;;65.75;38.58;;;;;;;-4.91;100.00;98405.75;2079277;28;20274;-75
2021/12/28 03:59:11;;;;;;;70.13;40.50;;;;;;;-5.07;100.00;98391.47;2079273;28;20273;-75
2021/12/28 04:00:14;;;;;;;69.55;39.95;;;;;;;-4.96;100.00;98402.97;2087493;28;20999;-75
2021/12/28 04:01:18;;;;;;;68.38;39.75;;;;;;;-4.99;100.00;98414.63;2087405;28;20627;-75
2021/12/28 04:02:19;;;;;;;63.80;38.20;;;;;;;-5.01;100.00;98410.63;2087405;28;20223;-74
2021/12/28 04:03:23;;;;;;;70.53;39.30;;;;;;;-4.98;100.00;98407.59;2088240;28;20754;-75
2021/12/28 04:04:25;;;;;;;67.68;37.90;;;;;;;-4.93;100.00;98407.78;2087713;28;20226;-75
2021/12/28 04:05:27;;;;;;;65.37;38.40;;;;;;;-4.96;100.00;98395.19;2087325;28;20250;-75
2021/12/28 04:06:30;;;;;;;72.68;41.00;;;;;;;-5.00;100.00;98401.81;2087216;28;20226;-74
2021/12/28 04:07:31;;;;;;;68.40;39.50;;;;;;;-5.01;100.00;98400.22;2088025;28;20249;-75
2021/12/28 04:08:33;;;;;;;65.27;38.63;;;;;;;-4.86;100.00;98404.13;2088247;28;20302;-74
2021/12/28 04:09:59;;;;;;;70.45;38.97;;;;;;;-4.87;100.00;98407.69;2088294;28;20215;-75
2021/12/28 04:11:13;;;;;;;69.18;38.78;;;;;;;-4.92;100.00;98404.16;2086687;28;20245;-74
2021/12/28 04:12:16;;;;;;;67.82;37.13;;;;;;;-4.90;100.00;98396.94;2087292;28;20603;-75
2021/12/28 04:13:17;;;;;;;63.08;36.42;;;;;;;-4.91;100.00;98401.34;2088077;28;20219;-75
2021/12/28 04:14:18;;;;;;;60.03;36.10;;;;;;;-4.77;100.00;98407.25;2087641;28;20222;-75
2021/12/28 04:15:19;;;;;;;62.20;36.00;;;;;;;-4.82;100.00;98407.06;2087580;28;20704;-75
2021/12/28 04:16:21;;;;;;;57.23;34.47;;;;;;;-4.78;100.00;98410.84;2088305;28;20681;-75
2021/12/28 04:17:26;;;;;;;60.20;36.10;;;;;;;-4.81;100.00;98406.06;2087922;28;20227;-75
2021/12/28 04:18:28;;;;;;;65.97;37.88;;;;;;;-4.86;100.00;98413.72;2087283;28;20241;-75
2021/12/28 04:19:30;;;;;;;56.55;36.35;;;;;;;-4.91;100.00;98413.56;2087492;28;20705;-74
2021/12/28 04:20:32;;;;;;;65.47;37.47;;;;;;;-4.92;100.00;98411.97;2088117;28;20240;-74
2021/12/28 04:21:35;;;;;;;57.78;36.95;;;;;;;-4.95;100.00;98417.56;2088177;28;20219;-75
2021/12/28 04:22:36;;;;;;;57.25;37.85;;;;;;;-4.94;100.00;98424.41;2087298;28;20268;-75
2021/12/28 04:23:37;;;;;;;60.08;36.40;;;;;;;-4.98;100.00;98415.41;2078558;28;20713;-75
2021/12/28 04:24:41;;;;;;;60.70;37.80;;;;;;;-4.95;100.00;98413.19;2079031;28;20641;-75
2021/12/28 04:25:45;;;;;;;62.08;36.45;;;;;;;-4.90;100.00;98410.75;2087282;28;20561;-75
2021/12/28 04:26:47;;;;;;;57.45;35.03;;;;;;;-4.81;100.00;98411.28;2088028;28;20222;-74
2021/12/28 04:27:48;;;;;;;56.20;34.67;;;;;;;-4.81;100.00;98413.88;2087964;28;20223;-75
2021/12/28 04:28:49;;;;;;;54.10;34.17;;;;;;;-4.84;100.00;98406.50;2087261;28;20301;-75
2021/12/28 04:29:50;;;;;;;57.88;34.90;;;;;;;-4.85;100.00;98407.50;2087397;28;20301;-75
2021/12/28 04:30:52;;;;;;;57.40;33.97;;;;;;;-4.89;100.00;98414.13;2087149;28;20222;-74
2021/12/28 04:31:53;;;;;;;55.28;35.63;;;;;;;-4.90;100.00;98413.34;2086831;28;20237;-74
2021/12/28 04:32:56;;;;;;;60.05;35.17;;;;;;;-4.92;100.00;98404.16;2087055;28;20321;-75
2021/12/28 04:33:59;;;;;;;52.85;33.33;;;;;;;-4.74;100.00;98412.00;2087048;28;20246;-74
2021/12/28 04:35:00;;;;;;;53.28;33.78;;;;;;;-4.81;100.00;98400.88;2087136;28;20222;-75
2021/12/28 04:36:01;;;;;;;57.90;34.47;;;;;;;-4.88;100.00;98400.91;2087264;28;20231;-74
2021/12/28 04:37:03;;;;;;;49.35;33.58;;;;;;;-4.78;100.00;98400.44;2087378;28;20230;-74
2021/12/28 04:38:04;;;;;;;51.40;33.13;;;;;;;-4.83;100.00;98397.69;2087328;28;20233;-75
2021/12/28 04:39:08;;;;;;;52.37;33.23;;;;;;;-4.89;100.00;98398.53;2087216;28;20230;-75
2021/12/28 04:40:12;;;;;;;53.90;32.45;;;;;;;-4.96;100.00;98398.56;2079205;28;20700;-75
2021/12/28 04:41:15;;;;;;;52.15;33.63;;;;;;;-4.98;100.00;98397.19;2087395;28;20282;-75
2021/12/28 04:42:16;;;;;;;60.03;35.90;;;;;;;-4.96;100.00;98402.97;2086917;28;20218;-75
2021/12/28 04:43:18;;;;;;;53.63;34.67;;;;;;;-4.94;100.00;98401.78;2087133;28;20651;-75
2021/12/28 04:44:24;;;;;;;56.22;35.53;;;;;;;-4.82;100.00;98399.28;2087255;28;20223;-75
2021/12/28 04:45:30;;;;;;;55.80;34.67;;;;;;;-4.75;100.00;98394.81;2087079;28;20614;-75